Eurocargo Valencia — IBGZ — position and weather

sailwx.info

Track history (hours):
 
Tides and Currents Weather Stations Pressure Air Temp Water Temp Dewpoint Dewpoint Depression Visibility Wind Speed Wind Dir Waves Ship Positions

Eurocargo Valencia

Last reported at 2015-Sep-01 17:29 UTC. Time now 2015-Sep-01 18:10 UTC.
Position N 40°43' E 029°28'.

Length 196 m; draft 6.4 m.

Type: Cargo ship. MMSI: 247579000.

Date/timePositionNaut miles runAvg speedWind from/ knotsBaromVisibWave heightAir tempDewpointWater temp
2015-Sep-01 17:29N 40°43' E 029°28'0 0.0
2015-Sep-01 16:29N 40°43' E 029°28'0 0.0
2015-Sep-01 15:23N 40°43' E 029°28'0 0.0
2015-Sep-01 14:23N 40°43' E 029°28'0 0.0
2015-Sep-01 13:23N 40°43' E 029°28'0 0.0
2015-Sep-01 12:29N 40°43' E 029°28'0 0.0
2015-Sep-01 11:29N 40°43' E 029°28'0 0.0
2015-Sep-01 10:29N 40°43' E 029°28'0 0.0
2015-Sep-01 09:17N 40°43' E 029°28'0 0.0
2015-Sep-01 08:29N 40°43' E 029°28'0 0.0
2015-Sep-01 07:29N 40°43' E 029°28'0 0.0
2015-Aug-31 17:11N 40°43' E 029°28'0 0.0
2015-Aug-31 15:17N 40°43' E 029°28'0 0.0
2015-Aug-31 14:29N 40°43' E 029°28'0 0.0
2015-Aug-31 13:29N 40°43' E 029°28'0 0.0
2015-Aug-31 11:05N 40°43' E 029°28'0 0.0
2015-Aug-31 10:17N 40°43' E 029°28'0 0.0
2015-Aug-31 09:29N 40°43' E 029°28'  
2015-Aug-29 03:26N 40°43' E 029°28'0 0.0
2015-Aug-29 02:32N 40°43' E 029°28'0 0.0
2015-Aug-29 01:32N 40°43' E 029°28'0 0.0
2015-Aug-29 00:32N 40°43' E 029°28'0 0.0
2015-Aug-28 23:32N 40°43' E 029°28'0 0.0
2015-Aug-28 22:32N 40°43' E 029°28'0 0.0
2015-Aug-28 21:26N 40°43' E 029°28'0 0.0
2015-Aug-28 20:20N 40°43' E 029°28'0 0.0
2015-Aug-28 19:32N 40°43' E 029°28'0 0.0
2015-Aug-28 18:32N 40°43' E 029°28'0 0.0
2015-Aug-28 17:20N 40°43' E 029°28'0 0.0
2015-Aug-28 16:20N 40°43' E 029°28'0 0.0
2015-Aug-28 13:32N 40°43' E 029°28'0 0.0
2015-Aug-28 12:26N 40°43' E 029°28'0 0.0
2015-Aug-28 11:20N 40°43' E 029°28'0 0.0
2015-Aug-28 10:32N 40°43' E 029°28'0 0.0
2015-Aug-28 09:32N 40°43' E 029°28'0 0.0
2015-Aug-28 07:14N 40°43' E 029°28'0 0.0
2015-Aug-28 06:33N 40°43' E 029°28'0 0.0
2015-Aug-28 05:33N 40°43' E 029°28'0 0.0
2015-Aug-28 04:33N 40°43' E 029°28'0 0.0
2015-Aug-28 03:33N 40°43' E 029°28'0 0.0
2015-Aug-28 02:32N 40°43' E 029°28'0 0.0
2015-Aug-28 01:33N 40°43' E 029°28'0 0.0
2015-Aug-28 00:33N 40°43' E 029°28'0 0.0
2015-Aug-27 23:33N 40°43' E 029°28'0 0.0
2015-Aug-27 22:33N 40°43' E 029°28'3 2.3
2015-Aug-27 21:22N 40°43' E 029°24'4 4.5
2015-Aug-27 20:33N 40°42' E 029°20'0 0.2
2015-Aug-27 19:26N 40°41' E 029°20'0 0.1
2015-Aug-27 18:23N 40°41' E 029°20'0 0.0
2015-Aug-27 17:29N 40°41' E 029°20'0 0.0
2015-Aug-27 16:23N 40°41' E 029°20'0 0.0
2015-Aug-27 13:23N 40°41' E 029°20'0 0.0
2015-Aug-27 11:29N 40°41' E 029°20'0 0.0
2015-Aug-27 10:23N 40°41' E 029°20'0 0.0
2015-Aug-27 09:23N 40°41' E 029°20'0 0.0
2015-Aug-27 08:29N 40°41' E 029°20'244 6.3
2015-Aug-25 17:33N 37°39' E 025°52'1414.1
2015-Aug-25 16:33N 37°25' E 025°55'3314.0
2015-Aug-25 14:10N 36°55' E 026°15'914.2
2015-Aug-25 13:33N 36°49' E 026°23'  
2015-Aug-23 01:27N 32°55' E 034°42'9 1.2
2015-Aug-22 17:33N 32°54' E 034°52'  
Track history (hours):
 
Tides and Currents Weather Stations Pressure Air Temp Water Temp Dewpoint Dewpoint Depression Visibility Wind Speed Wind Dir Waves Ship Positions

Eurocargo Valencia

Last reported at 2015-Sep-01 17:29 UTC. Time now 2015-Sep-01 18:10 UTC.
Position N 40°43' E 029°28'.

Length 196 m; draft 6.4 m.

Type: Cargo ship. MMSI: 247579000.

Date/timePositionNaut miles runAvg speedWind from/ knotsBaromVisibWave heightAir tempDewpointWater temp
2015-Sep-01 17:29N 40°43' E 029°28'0 0.0
2015-Sep-01 16:29N 40°43' E 029°28'0 0.0
2015-Sep-01 15:23N 40°43' E 029°28'0 0.0
2015-Sep-01 14:23N 40°43' E 029°28'0 0.0
2015-Sep-01 13:23N 40°43' E 029°28'0 0.0
2015-Sep-01 12:29N 40°43' E 029°28'0 0.0
2015-Sep-01 11:29N 40°43' E 029°28'0 0.0
2015-Sep-01 10:29N 40°43' E 029°28'0 0.0
2015-Sep-01 09:17N 40°43' E 029°28'0 0.0
2015-Sep-01 08:29N 40°43' E 029°28'0 0.0
2015-Sep-01 07:29N 40°43' E 029°28'0 0.0
2015-Aug-31 17:11N 40°43' E 029°28'0 0.0
2015-Aug-31 15:17N 40°43' E 029°28'0 0.0
2015-Aug-31 14:29N 40°43' E 029°28'0 0.0
2015-Aug-31 13:29N 40°43' E 029°28'0 0.0
2015-Aug-31 11:05N 40°43' E 029°28'0 0.0
2015-Aug-31 10:17N 40°43' E 029°28'0 0.0
2015-Aug-31 09:29N 40°43' E 029°28'  
2015-Aug-29 03:26N 40°43' E 029°28'0 0.0
2015-Aug-29 02:32N 40°43' E 029°28'0 0.0
2015-Aug-29 01:32N 40°43' E 029°28'0 0.0
2015-Aug-29 00:32N 40°43' E 029°28'0 0.0
2015-Aug-28 23:32N 40°43' E 029°28'0 0.0
2015-Aug-28 22:32N 40°43' E 029°28'0 0.0
2015-Aug-28 21:26N 40°43' E 029°28'0 0.0
2015-Aug-28 20:20N 40°43' E 029°28'0 0.0
2015-Aug-28 19:32N 40°43' E 029°28'0 0.0
2015-Aug-28 18:32N 40°43' E 029°28'0 0.0
2015-Aug-28 17:20N 40°43' E 029°28'0 0.0
2015-Aug-28 16:20N 40°43' E 029°28'0 0.0
2015-Aug-28 13:32N 40°43' E 029°28'0 0.0
2015-Aug-28 12:26N 40°43' E 029°28'0 0.0
2015-Aug-28 11:20N 40°43' E 029°28'0 0.0
2015-Aug-28 10:32N 40°43' E 029°28'0 0.0
2015-Aug-28 09:32N 40°43' E 029°28'0 0.0
2015-Aug-28 07:14N 40°43' E 029°28'0 0.0
2015-Aug-28 06:33N 40°43' E 029°28'0 0.0
2015-Aug-28 05:33N 40°43' E 029°28'0 0.0
2015-Aug-28 04:33N 40°43' E 029°28'0 0.0
2015-Aug-28 03:33N 40°43' E 029°28'0 0.0
2015-Aug-28 02:32N 40°43' E 029°28'0 0.0
2015-Aug-28 01:33N 40°43' E 029°28'0 0.0
2015-Aug-28 00:33N 40°43' E 029°28'0 0.0
2015-Aug-27 23:33N 40°43' E 029°28'0 0.0
2015-Aug-27 22:33N 40°43' E 029°28'3 2.3
2015-Aug-27 21:22N 40°43' E 029°24'4 4.5
2015-Aug-27 20:33N 40°42' E 029°20'0 0.2
2015-Aug-27 19:26N 40°41' E 029°20'0 0.1
2015-Aug-27 18:23N 40°41' E 029°20'0 0.0
2015-Aug-27 17:29N 40°41' E 029°20'0 0.0
2015-Aug-27 16:23N 40°41' E 029°20'0 0.0
2015-Aug-27 13:23N 40°41' E 029°20'0 0.0
2015-Aug-27 11:29N 40°41' E 029°20'0 0.0
2015-Aug-27 10:23N 40°41' E 029°20'0 0.0
2015-Aug-27 09:23N 40°41' E 029°20'0 0.0
2015-Aug-27 08:29N 40°41' E 029°20'244 6.3
2015-Aug-25 17:33N 37°39' E 025°52'1414.1
2015-Aug-25 16:33N 37°25' E 025°55'3314.0
2015-Aug-25 14:10N 36°55' E 026°15'914.2
2015-Aug-25 13:33N 36°49' E 026°23'  
2015-Aug-23 01:27N 32°55' E 034°42'9 1.2
2015-Aug-22 17:33N 32°54' E 034°52'  

Dump ship's entire track history